sensor_id;sensor_type;location;lat;lon;timestamp;P1;durP1;ratioP1;P2;durP2;ratioP2
77769;SDS011;66961;51.482;9.160;2023-12-07T00:01:02;30.87;;;14.67;;
77769;SDS011;66961;51.482;9.160;2023-12-07T00:03:28;31.98;;;16.33;;
77769;SDS011;66961;51.482;9.160;2023-12-07T00:05:53;29.80;;;15.53;;
77769;SDS011;66961;51.482;9.160;2023-12-07T00:08:18;32.07;;;15.33;;
77769;SDS011;66961;51.482;9.160;2023-12-07T00:10:44;29.43;;;15.07;;
77769;SDS011;66961;51.482;9.160;2023-12-07T00:13:09;31.53;;;16.47;;
77769;SDS011;66961;51.482;9.160;2023-12-07T00:15:34;28.53;;;15.23;;
77769;SDS011;66961;51.482;9.160;2023-12-07T00:17:59;34.87;;;16.87;;
77769;SDS011;66961;51.482;9.160;2023-12-07T00:20:25;32.37;;;15.73;;
77769;SDS011;66961;51.482;9.160;2023-12-07T00:22:50;27.77;;;15.52;;
77769;SDS011;66961;51.482;9.160;2023-12-07T00:25:15;28.00;;;15.93;;
77769;SDS011;66961;51.482;9.160;2023-12-07T00:27:41;30.53;;;16.10;;
77769;SDS011;66961;51.482;9.160;2023-12-07T00:30:06;31.03;;;17.07;;
77769;SDS011;66961;51.482;9.160;2023-12-07T00:32:32;33.70;;;16.73;;
77769;SDS011;66961;51.482;9.160;2023-12-07T00:34:57;31.97;;;15.90;;
77769;SDS011;66961;51.482;9.160;2023-12-07T00:37:22;33.33;;;16.57;;
77769;SDS011;66961;51.482;9.160;2023-12-07T00:39:47;34.03;;;16.83;;
77769;SDS011;66961;51.482;9.160;2023-12-07T00:42:13;29.53;;;16.60;;
77769;SDS011;66961;51.482;9.160;2023-12-07T00:44:41;31.03;;;15.47;;
77769;SDS011;66961;51.482;9.160;2023-12-07T00:47:06;28.70;;;16.02;;
77769;SDS011;66961;51.482;9.160;2023-12-07T00:49:32;29.35;;;16.70;;
77769;SDS011;66961;51.482;9.160;2023-12-07T00:51:58;31.58;;;15.77;;
77769;SDS011;66961;51.482;9.160;2023-12-07T00:54:23;28.13;;;15.82;;
77769;SDS011;66961;51.482;9.160;2023-12-07T00:56:48;31.03;;;15.73;;
77769;SDS011;66961;51.482;9.160;2023-12-07T00:59:14;30.70;;;16.27;;
77769;SDS011;66961;51.482;9.160;2023-12-07T01:01:39;27.83;;;15.30;;
77769;SDS011;66961;51.482;9.160;2023-12-07T01:04:04;32.07;;;16.93;;
77769;SDS011;66961;51.482;9.160;2023-12-07T01:06:30;34.03;;;16.65;;
77769;SDS011;66961;51.482;9.160;2023-12-07T01:08:55;30.80;;;15.07;;
77769;SDS011;66961;51.482;9.160;2023-12-07T01:11:20;30.73;;;16.63;;
77769;SDS011;66961;51.482;9.160;2023-12-07T01:13:45;30.27;;;15.77;;
77769;SDS011;66961;51.482;9.160;2023-12-07T01:16:11;31.13;;;17.00;;
77769;SDS011;66961;51.482;9.160;2023-12-07T01:18:36;35.27;;;17.73;;
77769;SDS011;66961;51.482;9.160;2023-12-07T01:21:01;33.60;;;17.37;;
77769;SDS011;66961;51.482;9.160;2023-12-07T01:23:26;34.27;;;17.63;;
77769;SDS011;66961;51.482;9.160;2023-12-07T01:25:52;35.30;;;18.30;;
77769;SDS011;66961;51.482;9.160;2023-12-07T01:28:17;33.83;;;17.27;;
77769;SDS011;66961;51.482;9.160;2023-12-07T01:30:42;34.90;;;16.37;;
77769;SDS011;66961;51.482;9.160;2023-12-07T01:33:08;33.85;;;16.02;;
77769;SDS011;66961;51.482;9.160;2023-12-07T01:35:33;32.77;;;16.07;;
77769;SDS011;66961;51.482;9.160;2023-12-07T01:37:58;34.07;;;16.50;;
77769;SDS011;66961;51.482;9.160;2023-12-07T01:40:23;34.80;;;16.13;;
77769;SDS011;66961;51.482;9.160;2023-12-07T01:42:49;33.30;;;15.57;;
77769;SDS011;66961;51.482;9.160;2023-12-07T01:45:15;30.70;;;14.55;;
77769;SDS011;66961;51.482;9.160;2023-12-07T01:47:40;31.30;;;15.07;;
77769;SDS011;66961;51.482;9.160;2023-12-07T01:50:06;29.35;;;14.23;;
77769;SDS011;66961;51.482;9.160;2023-12-07T01:52:33;33.17;;;14.20;;
77769;SDS011;66961;51.482;9.160;2023-12-07T01:55:02;29.88;;;14.80;;
77769;SDS011;66961;51.482;9.160;2023-12-07T01:57:28;31.83;;;15.20;;
77769;SDS011;66961;51.482;9.160;2023-12-07T01:59:54;35.13;;;16.20;;
77769;SDS011;66961;51.482;9.160;2023-12-07T02:02:19;32.90;;;16.85;;
77769;SDS011;66961;51.482;9.160;2023-12-07T02:04:44;30.83;;;14.97;;
77769;SDS011;66961;51.482;9.160;2023-12-07T02:07:09;33.97;;;16.70;;
77769;SDS011;66961;51.482;9.160;2023-12-07T02:09:36;35.50;;;17.17;;
77769;SDS011;66961;51.482;9.160;2023-12-07T02:12:02;34.25;;;15.80;;
77769;SDS011;66961;51.482;9.160;2023-12-07T02:14:28;30.48;;;15.75;;
77769;SDS011;66961;51.482;9.160;2023-12-07T02:16:55;32.67;;;16.45;;
77769;SDS011;66961;51.482;9.160;2023-12-07T02:22:12;33.00;;;17.58;;
77769;SDS011;66961;51.482;9.160;2023-12-07T02:24:45;32.45;;;17.17;;
77769;SDS011;66961;51.482;9.160;2023-12-07T02:27:32;35.05;;;16.40;;
77769;SDS011;66961;51.482;9.160;2023-12-07T02:30:01;33.85;;;16.27;;
77769;SDS011;66961;51.482;9.160;2023-12-07T02:32:26;35.80;;;18.80;;
77769;SDS011;66961;51.482;9.160;2023-12-07T02:34:52;34.70;;;17.03;;
77769;SDS011;66961;51.482;9.160;2023-12-07T02:37:17;33.50;;;17.30;;
77769;SDS011;66961;51.482;9.160;2023-12-07T02:39:44;36.75;;;18.77;;
77769;SDS011;66961;51.482;9.160;2023-12-07T02:42:10;37.03;;;17.75;;
77769;SDS011;66961;51.482;9.160;2023-12-07T02:44:39;43.10;;;18.02;;
77769;SDS011;66961;51.482;9.160;2023-12-07T02:47:05;34.40;;;16.92;;
77769;SDS011;66961;51.482;9.160;2023-12-07T02:49:30;36.17;;;16.35;;
77769;SDS011;66961;51.482;9.160;2023-12-07T02:51:55;33.95;;;17.58;;
77769;SDS011;66961;51.482;9.160;2023-12-07T02:54:21;35.58;;;17.42;;
77769;SDS011;66961;51.482;9.160;2023-12-07T02:56:47;38.23;;;16.87;;
77769;SDS011;66961;51.482;9.160;2023-12-07T02:59:13;35.10;;;16.42;;
77769;SDS011;66961;51.482;9.160;2023-12-07T03:01:38;39.17;;;18.50;;
77769;SDS011;66961;51.482;9.160;2023-12-07T03:04:04;35.50;;;17.67;;
77769;SDS011;66961;51.482;9.160;2023-12-07T03:06:29;39.63;;;18.47;;
77769;SDS011;66961;51.482;9.160;2023-12-07T03:08:54;39.83;;;16.37;;
77769;SDS011;66961;51.482;9.160;2023-12-07T03:11:19;39.10;;;18.33;;
77769;SDS011;66961;51.482;9.160;2023-12-07T03:13:45;39.43;;;17.47;;
77769;SDS011;66961;51.482;9.160;2023-12-07T03:16:10;38.87;;;18.83;;
77769;SDS011;66961;51.482;9.160;2023-12-07T03:18:36;35.40;;;17.20;;
77769;SDS011;66961;51.482;9.160;2023-12-07T03:21:02;39.70;;;17.38;;
77769;SDS011;66961;51.482;9.160;2023-12-07T03:23:27;34.45;;;16.23;;
77769;SDS011;66961;51.482;9.160;2023-12-07T03:25:52;36.47;;;17.70;;
77769;SDS011;66961;51.482;9.160;2023-12-07T03:28:18;38.93;;;17.70;;
77769;SDS011;66961;51.482;9.160;2023-12-07T03:30:43;39.23;;;18.47;;
77769;SDS011;66961;51.482;9.160;2023-12-07T03:33:08;37.47;;;17.83;;
77769;SDS011;66961;51.482;9.160;2023-12-07T03:35:33;38.87;;;16.93;;
77769;SDS011;66961;51.482;9.160;2023-12-07T03:37:59;41.83;;;19.27;;
77769;SDS011;66961;51.482;9.160;2023-12-07T03:40:24;40.57;;;18.37;;
77769;SDS011;66961;51.482;9.160;2023-12-07T03:42:49;37.67;;;16.83;;
77769;SDS011;66961;51.482;9.160;2023-12-07T03:45:14;38.93;;;18.43;;
77769;SDS011;66961;51.482;9.160;2023-12-07T03:47:40;43.40;;;19.15;;
77769;SDS011;66961;51.482;9.160;2023-12-07T03:50:05;39.60;;;18.07;;
77769;SDS011;66961;51.482;9.160;2023-12-07T03:52:31;38.42;;;19.20;;
77769;SDS011;66961;51.482;9.160;2023-12-07T03:54:56;38.90;;;18.30;;
77769;SDS011;66961;51.482;9.160;2023-12-07T03:57:21;43.67;;;19.50;;
77769;SDS011;66961;51.482;9.160;2023-12-07T03:59:46;40.70;;;17.37;;
77769;SDS011;66961;51.482;9.160;2023-12-07T04:02:12;40.40;;;19.03;;
77769;SDS011;66961;51.482;9.160;2023-12-07T04:04:37;38.33;;;17.23;;
77769;SDS011;66961;51.482;9.160;2023-12-07T04:07:02;41.65;;;18.60;;
77769;SDS011;66961;51.482;9.160;2023-12-07T04:09:28;40.20;;;18.17;;
77769;SDS011;66961;51.482;9.160;2023-12-07T04:11:53;48.77;;;23.30;;
77769;SDS011;66961;51.482;9.160;2023-12-07T04:14:18;48.53;;;24.00;;
77769;SDS011;66961;51.482;9.160;2023-12-07T04:16:43;48.57;;;21.90;;
77769;SDS011;66961;51.482;9.160;2023-12-07T04:19:09;43.70;;;20.97;;
77769;SDS011;66961;51.482;9.160;2023-12-07T04:21:34;40.50;;;19.03;;
77769;SDS011;66961;51.482;9.160;2023-12-07T04:23:59;47.40;;;20.15;;
77769;SDS011;66961;51.482;9.160;2023-12-07T04:26:25;44.93;;;20.17;;
77769;SDS011;66961;51.482;9.160;2023-12-07T04:28:50;42.10;;;20.03;;
77769;SDS011;66961;51.482;9.160;2023-12-07T04:31:15;40.27;;;19.87;;
77769;SDS011;66961;51.482;9.160;2023-12-07T04:33:40;44.73;;;19.13;;
77769;SDS011;66961;51.482;9.160;2023-12-07T04:36:06;40.47;;;19.07;;
77769;SDS011;66961;51.482;9.160;2023-12-07T04:38:31;43.83;;;20.33;;
77769;SDS011;66961;51.482;9.160;2023-12-07T04:40:57;45.80;;;20.67;;
77769;SDS011;66961;51.482;9.160;2023-12-07T04:43:22;45.65;;;20.23;;
77769;SDS011;66961;51.482;9.160;2023-12-07T04:45:48;44.80;;;20.40;;
77769;SDS011;66961;51.482;9.160;2023-12-07T04:48:13;44.47;;;20.17;;
77769;SDS011;66961;51.482;9.160;2023-12-07T04:50:38;43.53;;;20.37;;
77769;SDS011;66961;51.482;9.160;2023-12-07T04:53:03;43.47;;;19.60;;
77769;SDS011;66961;51.482;9.160;2023-12-07T04:55:30;40.47;;;18.73;;
77769;SDS011;66961;51.482;9.160;2023-12-07T04:57:55;42.00;;;17.93;;
77769;SDS011;66961;51.482;9.160;2023-12-07T05:00:20;47.97;;;19.03;;
77769;SDS011;66961;51.482;9.160;2023-12-07T05:02:46;42.92;;;19.50;;
77769;SDS011;66961;51.482;9.160;2023-12-07T05:05:11;45.63;;;18.67;;
77769;SDS011;66961;51.482;9.160;2023-12-07T05:07:36;39.60;;;17.73;;
77769;SDS011;66961;51.482;9.160;2023-12-07T05:10:01;43.20;;;19.30;;
77769;SDS011;66961;51.482;9.160;2023-12-07T05:12:27;42.30;;;18.13;;
77769;SDS011;66961;51.482;9.160;2023-12-07T05:14:52;43.80;;;19.17;;
77769;SDS011;66961;51.482;9.160;2023-12-07T05:17:17;46.73;;;18.77;;
77769;SDS011;66961;51.482;9.160;2023-12-07T05:19:43;40.40;;;17.43;;
77769;SDS011;66961;51.482;9.160;2023-12-07T05:22:09;46.78;;;18.83;;
77769;SDS011;66961;51.482;9.160;2023-12-07T05:24:34;42.93;;;17.93;;
77769;SDS011;66961;51.482;9.160;2023-12-07T05:27:00;44.92;;;18.45;;
77769;SDS011;66961;51.482;9.160;2023-12-07T05:29:25;42.15;;;18.05;;
77769;SDS011;66961;51.482;9.160;2023-12-07T05:31:51;47.45;;;18.10;;
77769;SDS011;66961;51.482;9.160;2023-12-07T05:34:16;55.58;;;21.20;;
77769;SDS011;66961;51.482;9.160;2023-12-07T05:36:42;89.03;;;23.08;;
77769;SDS011;66961;51.482;9.160;2023-12-07T05:39:07;54.23;;;19.90;;
77769;SDS011;66961;51.482;9.160;2023-12-07T05:41:32;43.53;;;18.27;;
77769;SDS011;66961;51.482;9.160;2023-12-07T05:43:58;40.13;;;18.17;;
77769;SDS011;66961;51.482;9.160;2023-12-07T05:46:23;37.20;;;17.50;;
77769;SDS011;66961;51.482;9.160;2023-12-07T05:48:48;39.10;;;17.17;;
77769;SDS011;66961;51.482;9.160;2023-12-07T05:51:14;38.77;;;16.63;;
77769;SDS011;66961;51.482;9.160;2023-12-07T05:53:41;40.67;;;16.17;;
77769;SDS011;66961;51.482;9.160;2023-12-07T05:56:06;35.35;;;16.77;;
77769;SDS011;66961;51.482;9.160;2023-12-07T05:58:32;37.85;;;15.80;;
77769;SDS011;66961;51.482;9.160;2023-12-07T06:00:57;36.77;;;16.53;;
77769;SDS011;66961;51.482;9.160;2023-12-07T06:03:23;40.75;;;16.75;;
77769;SDS011;66961;51.482;9.160;2023-12-07T06:05:48;33.50;;;15.43;;
77769;SDS011;66961;51.482;9.160;2023-12-07T06:08:13;41.03;;;16.77;;
77769;SDS011;66961;51.482;9.160;2023-12-07T06:10:39;41.83;;;18.03;;
77769;SDS011;66961;51.482;9.160;2023-12-07T06:13:04;39.20;;;16.87;;
77769;SDS011;66961;51.482;9.160;2023-12-07T06:15:29;34.87;;;16.43;;
77769;SDS011;66961;51.482;9.160;2023-12-07T06:17:55;41.88;;;17.13;;
77769;SDS011;66961;51.482;9.160;2023-12-07T06:20:20;40.50;;;17.13;;
77769;SDS011;66961;51.482;9.160;2023-12-07T06:22:45;38.60;;;17.17;;
77769;SDS011;66961;51.482;9.160;2023-12-07T06:25:11;40.75;;;18.52;;
77769;SDS011;66961;51.482;9.160;2023-12-07T06:27:36;47.20;;;18.80;;
77769;SDS011;66961;51.482;9.160;2023-12-07T06:30:03;42.35;;;18.75;;
77769;SDS011;66961;51.482;9.160;2023-12-07T06:32:29;41.05;;;18.52;;
77769;SDS011;66961;51.482;9.160;2023-12-07T06:34:54;43.83;;;19.30;;
77769;SDS011;66961;51.482;9.160;2023-12-07T06:37:19;43.43;;;18.53;;
77769;SDS011;66961;51.482;9.160;2023-12-07T06:39:45;46.63;;;20.20;;
77769;SDS011;66961;51.482;9.160;2023-12-07T06:42:10;47.15;;;20.35;;
77769;SDS011;66961;51.482;9.160;2023-12-07T06:44:36;44.53;;;18.80;;
77769;SDS011;66961;51.482;9.160;2023-12-07T06:47:01;45.67;;;20.77;;
77769;SDS011;66961;51.482;9.160;2023-12-07T06:49:26;50.13;;;20.73;;
77769;SDS011;66961;51.482;9.160;2023-12-07T06:51:52;55.80;;;21.33;;
77769;SDS011;66961;51.482;9.160;2023-12-07T06:54:17;49.73;;;19.80;;
77769;SDS011;66961;51.482;9.160;2023-12-07T06:56:42;45.53;;;18.90;;
77769;SDS011;66961;51.482;9.160;2023-12-07T06:59:07;50.63;;;19.13;;
77769;SDS011;66961;51.482;9.160;2023-12-07T07:01:32;48.20;;;18.77;;
77769;SDS011;66961;51.482;9.160;2023-12-07T07:03:58;39.73;;;17.17;;
77769;SDS011;66961;51.482;9.160;2023-12-07T07:06:23;47.63;;;19.57;;
77769;SDS011;66961;51.482;9.160;2023-12-07T07:08:48;43.47;;;18.03;;
77769;SDS011;66961;51.482;9.160;2023-12-07T07:11:13;43.60;;;19.60;;
77769;SDS011;66961;51.482;9.160;2023-12-07T07:13:39;48.50;;;20.00;;
77769;SDS011;66961;51.482;9.160;2023-12-07T07:16:04;44.30;;;19.10;;
77769;SDS011;66961;51.482;9.160;2023-12-07T07:18:30;51.70;;;20.50;;
77769;SDS011;66961;51.482;9.160;2023-12-07T07:20:55;49.53;;;20.63;;
77769;SDS011;66961;51.482;9.160;2023-12-07T07:23:20;45.53;;;18.63;;
77769;SDS011;66961;51.482;9.160;2023-12-07T07:25:45;47.03;;;20.23;;
77769;SDS011;66961;51.482;9.160;2023-12-07T07:28:11;46.23;;;19.80;;
77769;SDS011;66961;51.482;9.160;2023-12-07T07:30:36;42.00;;;18.57;;
77769;SDS011;66961;51.482;9.160;2023-12-07T07:33:01;44.70;;;18.87;;
77769;SDS011;66961;51.482;9.160;2023-12-07T07:35:27;36.50;;;17.10;;
77769;SDS011;66961;51.482;9.160;2023-12-07T07:37:52;33.57;;;15.30;;
77769;SDS011;66961;51.482;9.160;2023-12-07T07:40:17;29.20;;;15.03;;
77769;SDS011;66961;51.482;9.160;2023-12-07T07:42:42;27.65;;;13.43;;
77769;SDS011;66961;51.482;9.160;2023-12-07T07:45:08;26.47;;;13.63;;
77769;SDS011;66961;51.482;9.160;2023-12-07T07:47:34;27.73;;;13.15;;
77769;SDS011;66961;51.482;9.160;2023-12-07T07:49:59;26.30;;;13.07;;
77769;SDS011;66961;51.482;9.160;2023-12-07T07:52:25;26.60;;;13.77;;
77769;SDS011;66961;51.482;9.160;2023-12-07T07:54:50;30.67;;;13.37;;
77769;SDS011;66961;51.482;9.160;2023-12-07T07:57:15;25.73;;;12.40;;
77769;SDS011;66961;51.482;9.160;2023-12-07T07:59:41;25.10;;;12.43;;
77769;SDS011;66961;51.482;9.160;2023-12-07T08:02:06;25.03;;;11.77;;
77769;SDS011;66961;51.482;9.160;2023-12-07T08:04:31;27.17;;;12.75;;
77769;SDS011;66961;51.482;9.160;2023-12-07T08:06:57;26.50;;;12.57;;
77769;SDS011;66961;51.482;9.160;2023-12-07T08:09:22;26.03;;;12.30;;
77769;SDS011;66961;51.482;9.160;2023-12-07T08:11:47;26.37;;;13.20;;
77769;SDS011;66961;51.482;9.160;2023-12-07T08:14:13;24.67;;;12.63;;
77769;SDS011;66961;51.482;9.160;2023-12-07T08:16:38;26.80;;;12.10;;
77769;SDS011;66961;51.482;9.160;2023-12-07T08:19:07;24.13;;;12.73;;
77769;SDS011;66961;51.482;9.160;2023-12-07T08:21:32;24.13;;;12.00;;
77769;SDS011;66961;51.482;9.160;2023-12-07T08:23:57;22.57;;;11.60;;
77769;SDS011;66961;51.482;9.160;2023-12-07T08:26:22;22.33;;;11.13;;
77769;SDS011;66961;51.482;9.160;2023-12-07T08:28:48;25.40;;;11.93;;
77769;SDS011;66961;51.482;9.160;2023-12-07T08:31:13;23.85;;;12.10;;
77769;SDS011;66961;51.482;9.160;2023-12-07T08:33:38;21.07;;;11.40;;
77769;SDS011;66961;51.482;9.160;2023-12-07T08:36:04;24.80;;;12.37;;
77769;SDS011;66961;51.482;9.160;2023-12-07T08:38:29;21.88;;;11.07;;
77769;SDS011;66961;51.482;9.160;2023-12-07T08:40:55;21.07;;;11.47;;
77769;SDS011;66961;51.482;9.160;2023-12-07T08:43:21;23.23;;;12.53;;
77769;SDS011;66961;51.482;9.160;2023-12-07T08:45:47;28.05;;;12.85;;
77769;SDS011;66961;51.482;9.160;2023-12-07T08:48:12;24.57;;;12.53;;
77769;SDS011;66961;51.482;9.160;2023-12-07T08:50:37;22.90;;;12.70;;
77769;SDS011;66961;51.482;9.160;2023-12-07T08:53:02;18.80;;;11.27;;
77769;SDS011;66961;51.482;9.160;2023-12-07T08:55:28;20.75;;;10.38;;
77769;SDS011;66961;51.482;9.160;2023-12-07T08:57:53;18.40;;;11.23;;
77769;SDS011;66961;51.482;9.160;2023-12-07T09:00:18;17.37;;;10.83;;
77769;SDS011;66961;51.482;9.160;2023-12-07T09:02:44;17.10;;;9.47;;
77769;SDS011;66961;51.482;9.160;2023-12-07T09:05:09;18.13;;;10.03;;
77769;SDS011;66961;51.482;9.160;2023-12-07T09:07:34;18.70;;;9.70;;
77769;SDS011;66961;51.482;9.160;2023-12-07T09:09:59;17.17;;;10.17;;
77769;SDS011;66961;51.482;9.160;2023-12-07T09:12:25;17.30;;;9.73;;
77769;SDS011;66961;51.482;9.160;2023-12-07T09:14:50;17.73;;;9.50;;
77769;SDS011;66961;51.482;9.160;2023-12-07T09:17:15;16.80;;;8.97;;
77769;SDS011;66961;51.482;9.160;2023-12-07T09:19:40;17.77;;;10.83;;
77769;SDS011;66961;51.482;9.160;2023-12-07T09:22:06;18.90;;;9.67;;
77769;SDS011;66961;51.482;9.160;2023-12-07T09:24:31;17.57;;;9.20;;
77769;SDS011;66961;51.482;9.160;2023-12-07T09:26:56;16.30;;;9.57;;
77769;SDS011;66961;51.482;9.160;2023-12-07T09:29:21;16.57;;;8.83;;
77769;SDS011;66961;51.482;9.160;2023-12-07T09:31:47;16.97;;;8.97;;
77769;SDS011;66961;51.482;9.160;2023-12-07T09:34:12;17.30;;;9.53;;
77769;SDS011;66961;51.482;9.160;2023-12-07T09:36:37;14.53;;;8.43;;
77769;SDS011;66961;51.482;9.160;2023-12-07T09:39:02;14.43;;;8.33;;
77769;SDS011;66961;51.482;9.160;2023-12-07T09:41:28;15.30;;;9.50;;
77769;SDS011;66961;51.482;9.160;2023-12-07T09:43:53;15.00;;;8.43;;
77769;SDS011;66961;51.482;9.160;2023-12-07T09:46:19;14.23;;;8.13;;
77769;SDS011;66961;51.482;9.160;2023-12-07T09:48:44;12.63;;;7.20;;
77769;SDS011;66961;51.482;9.160;2023-12-07T09:51:14;14.50;;;7.65;;
77769;SDS011;66961;51.482;9.160;2023-12-07T09:53:40;12.32;;;7.57;;
77769;SDS011;66961;51.482;9.160;2023-12-07T09:56:07;12.85;;;7.82;;
77769;SDS011;66961;51.482;9.160;2023-12-07T09:58:33;11.82;;;7.20;;
77769;SDS011;66961;51.482;9.160;2023-12-07T10:00:58;12.63;;;7.07;;
77769;SDS011;66961;51.482;9.160;2023-12-07T10:03:23;12.73;;;7.13;;
77769;SDS011;66961;51.482;9.160;2023-12-07T10:05:53;13.10;;;7.50;;
77769;SDS011;66961;51.482;9.160;2023-12-07T10:08:26;11.48;;;7.10;;
77769;SDS011;66961;51.482;9.160;2023-12-07T10:13:47;10.02;;;6.35;;
77769;SDS011;66961;51.482;9.160;2023-12-07T10:16:13;12.77;;;7.53;;
77769;SDS011;66961;51.482;9.160;2023-12-07T10:18:40;14.75;;;6.97;;
77769;SDS011;66961;51.482;9.160;2023-12-07T10:21:09;12.40;;;7.00;;
77769;SDS011;66961;51.482;9.160;2023-12-07T10:23:35;13.25;;;7.95;;
77769;SDS011;66961;51.482;9.160;2023-12-07T10:26:02;10.43;;;7.28;;
77769;SDS011;66961;51.482;9.160;2023-12-07T10:28:27;13.18;;;7.50;;
77769;SDS011;66961;51.482;9.160;2023-12-07T10:30:52;13.68;;;7.55;;
77769;SDS011;66961;51.482;9.160;2023-12-07T10:33:19;11.63;;;6.27;;
77769;SDS011;66961;51.482;9.160;2023-12-07T10:35:46;11.27;;;6.43;;
77769;SDS011;66961;51.482;9.160;2023-12-07T10:38:12;7.82;;;5.30;;
77769;SDS011;66961;51.482;9.160;2023-12-07T10:40:37;8.27;;;5.37;;
77769;SDS011;66961;51.482;9.160;2023-12-07T10:43:06;11.38;;;5.88;;
77769;SDS011;66961;51.482;9.160;2023-12-07T10:45:33;9.88;;;5.82;;
77769;SDS011;66961;51.482;9.160;2023-12-07T10:48:06;8.55;;;5.00;;
77769;SDS011;66961;51.482;9.160;2023-12-07T10:50:37;10.70;;;4.97;;
77769;SDS011;66961;51.482;9.160;2023-12-07T10:53:10;7.90;;;4.70;;
77769;SDS011;66961;51.482;9.160;2023-12-07T10:55:41;7.93;;;4.45;;
77769;SDS011;66961;51.482;9.160;2023-12-07T10:58:10;8.93;;;4.82;;
77769;SDS011;66961;51.482;9.160;2023-12-07T11:00:36;9.57;;;5.95;;
77769;SDS011;66961;51.482;9.160;2023-12-07T11:03:01;8.65;;;4.85;;
77769;SDS011;66961;51.482;9.160;2023-12-07T11:05:28;7.88;;;5.20;;
77769;SDS011;66961;51.482;9.160;2023-12-07T11:07:59;8.13;;;4.95;;
77769;SDS011;66961;51.482;9.160;2023-12-07T11:13:23;10.50;;;4.50;;
77769;SDS011;66961;51.482;9.160;2023-12-07T11:18:17;6.60;;;4.43;;
77769;SDS011;66961;51.482;9.160;2023-12-07T11:20:43;7.03;;;3.75;;
77769;SDS011;66961;51.482;9.160;2023-12-07T11:23:10;6.30;;;4.10;;
77769;SDS011;66961;51.482;9.160;2023-12-07T11:25:38;6.32;;;4.13;;
77769;SDS011;66961;51.482;9.160;2023-12-07T11:28:04;7.80;;;4.30;;
77769;SDS011;66961;51.482;9.160;2023-12-07T11:30:30;7.70;;;4.05;;
77769;SDS011;66961;51.482;9.160;2023-12-07T11:32:57;6.22;;;4.55;;
77769;SDS011;66961;51.482;9.160;2023-12-07T11:35:22;5.32;;;3.60;;
77769;SDS011;66961;51.482;9.160;2023-12-07T11:40:30;6.07;;;3.75;;
77769;SDS011;66961;51.482;9.160;2023-12-07T11:42:55;5.10;;;3.15;;
77769;SDS011;66961;51.482;9.160;2023-12-07T11:45:39;7.63;;;4.10;;
77769;SDS011;66961;51.482;9.160;2023-12-07T11:48:13;7.20;;;4.00;;
77769;SDS011;66961;51.482;9.160;2023-12-07T11:53:33;5.05;;;3.25;;
77769;SDS011;66961;51.482;9.160;2023-12-07T11:56:01;4.85;;;3.60;;
77769;SDS011;66961;51.482;9.160;2023-12-07T11:58:28;8.05;;;3.63;;
77769;SDS011;66961;51.482;9.160;2023-12-07T12:00:55;7.55;;;3.60;;
77769;SDS011;66961;51.482;9.160;2023-12-07T12:03:21;7.60;;;4.20;;
77769;SDS011;66961;51.482;9.160;2023-12-07T12:05:46;6.40;;;3.92;;
77769;SDS011;66961;51.482;9.160;2023-12-07T12:08:12;5.50;;;3.80;;
77769;SDS011;66961;51.482;9.160;2023-12-07T12:10:38;6.03;;;4.00;;
77769;SDS011;66961;51.482;9.160;2023-12-07T12:13:05;7.20;;;4.13;;
77769;SDS011;66961;51.482;9.160;2023-12-07T12:15:30;4.93;;;3.87;;
77769;SDS011;66961;51.482;9.160;2023-12-07T12:17:56;8.05;;;4.20;;
77769;SDS011;66961;51.482;9.160;2023-12-07T12:20:22;6.22;;;3.80;;
77769;SDS011;66961;51.482;9.160;2023-12-07T12:22:47;6.82;;;3.70;;
77769;SDS011;66961;51.482;9.160;2023-12-07T12:25:12;5.93;;;4.17;;
77769;SDS011;66961;51.482;9.160;2023-12-07T12:27:39;6.20;;;4.43;;
77769;SDS011;66961;51.482;9.160;2023-12-07T12:30:05;7.47;;;4.60;;
77769;SDS011;66961;51.482;9.160;2023-12-07T12:32:44;8.05;;;4.95;;
77769;SDS011;66961;51.482;9.160;2023-12-07T12:35:12;6.75;;;4.35;;
77769;SDS011;66961;51.482;9.160;2023-12-07T12:37:38;8.52;;;4.57;;
77769;SDS011;66961;51.482;9.160;2023-12-07T12:40:07;7.20;;;4.50;;
77769;SDS011;66961;51.482;9.160;2023-12-07T12:42:33;9.48;;;5.18;;
77769;SDS011;66961;51.482;9.160;2023-12-07T12:44:59;8.45;;;5.75;;
77769;SDS011;66961;51.482;9.160;2023-12-07T12:47:24;9.63;;;6.15;;
77769;SDS011;66961;51.482;9.160;2023-12-07T12:49:50;10.70;;;6.80;;
77769;SDS011;66961;51.482;9.160;2023-12-07T12:52:16;13.77;;;7.20;;
77769;SDS011;66961;51.482;9.160;2023-12-07T12:54:42;12.00;;;7.05;;
77769;SDS011;66961;51.482;9.160;2023-12-07T12:57:08;13.43;;;7.45;;
77769;SDS011;66961;51.482;9.160;2023-12-07T12:59:34;14.95;;;7.47;;
77769;SDS011;66961;51.482;9.160;2023-12-07T13:02:00;11.98;;;7.43;;
77769;SDS011;66961;51.482;9.160;2023-12-07T13:04:25;14.00;;;7.93;;
77769;SDS011;66961;51.482;9.160;2023-12-07T13:06:50;16.17;;;9.33;;
77769;SDS011;66961;51.482;9.160;2023-12-07T13:09:16;19.43;;;10.37;;
77769;SDS011;66961;51.482;9.160;2023-12-07T13:11:41;15.57;;;8.90;;
77769;SDS011;66961;51.482;9.160;2023-12-07T13:14:06;15.33;;;9.80;;
77769;SDS011;66961;51.482;9.160;2023-12-07T13:16:31;20.40;;;11.00;;
77769;SDS011;66961;51.482;9.160;2023-12-07T13:18:56;24.20;;;11.87;;
77769;SDS011;66961;51.482;9.160;2023-12-07T13:21:22;21.95;;;10.98;;
77769;SDS011;66961;51.482;9.160;2023-12-07T13:23:47;21.48;;;11.60;;
77769;SDS011;66961;51.482;9.160;2023-12-07T13:26:13;19.90;;;10.70;;
77769;SDS011;66961;51.482;9.160;2023-12-07T13:28:38;18.08;;;9.27;;
77769;SDS011;66961;51.482;9.160;2023-12-07T13:31:03;15.27;;;8.47;;
77769;SDS011;66961;51.482;9.160;2023-12-07T13:33:29;14.43;;;7.50;;
77769;SDS011;66961;51.482;9.160;2023-12-07T13:35:54;12.77;;;8.43;;
77769;SDS011;66961;51.482;9.160;2023-12-07T13:38:19;16.40;;;6.97;;
77769;SDS011;66961;51.482;9.160;2023-12-07T13:40:45;13.18;;;8.32;;
77769;SDS011;66961;51.482;9.160;2023-12-07T13:43:11;13.77;;;7.72;;
77769;SDS011;66961;51.482;9.160;2023-12-07T13:45:36;14.03;;;7.53;;
77769;SDS011;66961;51.482;9.160;2023-12-07T13:48:01;11.23;;;6.83;;
77769;SDS011;66961;51.482;9.160;2023-12-07T13:50:27;13.20;;;7.20;;
77769;SDS011;66961;51.482;9.160;2023-12-07T13:52:52;14.10;;;6.77;;
77769;SDS011;66961;51.482;9.160;2023-12-07T13:55:17;13.03;;;7.33;;
77769;SDS011;66961;51.482;9.160;2023-12-07T13:57:42;11.37;;;6.60;;
77769;SDS011;66961;51.482;9.160;2023-12-07T14:00:08;12.87;;;6.13;;
77769;SDS011;66961;51.482;9.160;2023-12-07T14:02:33;12.55;;;6.95;;
77769;SDS011;66961;51.482;9.160;2023-12-07T14:04:59;14.60;;;7.47;;
77769;SDS011;66961;51.482;9.160;2023-12-07T14:07:24;10.67;;;6.50;;
77769;SDS011;66961;51.482;9.160;2023-12-07T14:09:50;10.43;;;6.23;;
77769;SDS011;66961;51.482;9.160;2023-12-07T14:12:16;8.88;;;5.63;;
77769;SDS011;66961;51.482;9.160;2023-12-07T14:14:42;8.88;;;5.32;;
77769;SDS011;66961;51.482;9.160;2023-12-07T14:17:09;10.35;;;6.10;;
77769;SDS011;66961;51.482;9.160;2023-12-07T14:19:34;7.55;;;5.22;;
77769;SDS011;66961;51.482;9.160;2023-12-07T14:21:59;9.63;;;6.10;;
77769;SDS011;66961;51.482;9.160;2023-12-07T14:24:25;9.27;;;6.10;;
77769;SDS011;66961;51.482;9.160;2023-12-07T14:26:50;10.20;;;5.97;;
77769;SDS011;66961;51.482;9.160;2023-12-07T14:29:15;9.63;;;5.22;;
77769;SDS011;66961;51.482;9.160;2023-12-07T14:31:41;11.73;;;5.90;;
77769;SDS011;66961;51.482;9.160;2023-12-07T14:34:06;10.75;;;5.55;;
77769;SDS011;66961;51.482;9.160;2023-12-07T14:36:35;10.57;;;5.87;;